sensor_id;sensor_type;location;lat;lon;timestamp;P1;durP1;ratioP1;P2;durP2;ratioP2
9761;SDS011;4920;49.594;11.022;2023-09-19T00:01:10;8.27;;;3.58;;
9761;SDS011;4920;49.594;11.022;2023-09-19T00:03:39;6.40;;;3.60;;
9761;SDS011;4920;49.594;11.022;2023-09-19T00:06:09;5.55;;;3.38;;
9761;SDS011;4920;49.594;11.022;2023-09-19T00:08:40;6.57;;;3.58;;
9761;SDS011;4920;49.594;11.022;2023-09-19T00:11:10;8.10;;;3.45;;
9761;SDS011;4920;49.594;11.022;2023-09-19T00:13:42;5.50;;;3.55;;
9761;SDS011;4920;49.594;11.022;2023-09-19T00:16:11;6.80;;;3.45;;
9761;SDS011;4920;49.594;11.022;2023-09-19T00:18:41;6.88;;;3.30;;
9761;SDS011;4920;49.594;11.022;2023-09-19T00:21:10;6.28;;;3.20;;
9761;SDS011;4920;49.594;11.022;2023-09-19T00:23:39;4.20;;;3.45;;
9761;SDS011;4920;49.594;11.022;2023-09-19T00:26:09;6.47;;;3.30;;
9761;SDS011;4920;49.594;11.022;2023-09-19T00:28:38;6.63;;;3.30;;
9761;SDS011;4920;49.594;11.022;2023-09-19T00:31:10;7.05;;;3.28;;
9761;SDS011;4920;49.594;11.022;2023-09-19T00:33:39;6.07;;;3.28;;
9761;SDS011;4920;49.594;11.022;2023-09-19T00:36:09;5.88;;;2.92;;
9761;SDS011;4920;49.594;11.022;2023-09-19T00:38:38;4.35;;;3.33;;
9761;SDS011;4920;49.594;11.022;2023-09-19T00:41:07;5.93;;;3.72;;
9761;SDS011;4920;49.594;11.022;2023-09-19T00:43:36;6.05;;;3.55;;
9761;SDS011;4920;49.594;11.022;2023-09-19T00:46:05;4.85;;;3.28;;
9761;SDS011;4920;49.594;11.022;2023-09-19T00:48:38;4.55;;;3.20;;
9761;SDS011;4920;49.594;11.022;2023-09-19T00:51:10;7.45;;;3.47;;
9761;SDS011;4920;49.594;11.022;2023-09-19T00:53:41;9.13;;;3.83;;
9761;SDS011;4920;49.594;11.022;2023-09-19T00:56:13;8.27;;;3.80;;
9761;SDS011;4920;49.594;11.022;2023-09-19T01:02:19;6.10;;;3.60;;
9761;SDS011;4920;49.594;11.022;2023-09-19T01:04:49;5.07;;;3.13;;
9761;SDS011;4920;49.594;11.022;2023-09-19T01:07:20;5.68;;;3.38;;
9761;SDS011;4920;49.594;11.022;2023-09-19T01:09:49;5.68;;;3.20;;
9761;SDS011;4920;49.594;11.022;2023-09-19T01:12:22;4.38;;;3.08;;
9761;SDS011;4920;49.594;11.022;2023-09-19T01:15:03;6.05;;;3.05;;
9761;SDS011;4920;49.594;11.022;2023-09-19T01:17:41;5.55;;;3.40;;
9761;SDS011;4920;49.594;11.022;2023-09-19T01:20:17;4.07;;;3.15;;
9761;SDS011;4920;49.594;11.022;2023-09-19T01:22:56;5.00;;;3.20;;
9761;SDS011;4920;49.594;11.022;2023-09-19T01:28:43;5.00;;;3.63;;
9761;SDS011;4920;49.594;11.022;2023-09-19T01:31:24;8.80;;;3.50;;
9761;SDS011;4920;49.594;11.022;2023-09-19T01:33:58;6.50;;;3.25;;
9761;SDS011;4920;49.594;11.022;2023-09-19T01:36:28;4.53;;;2.90;;
9761;SDS011;4920;49.594;11.022;2023-09-19T01:39:01;5.50;;;3.20;;
9761;SDS011;4920;49.594;11.022;2023-09-19T01:41:51;4.82;;;3.35;;
9761;SDS011;4920;49.594;11.022;2023-09-19T01:44:25;4.47;;;3.10;;
9761;SDS011;4920;49.594;11.022;2023-09-19T01:47:02;6.80;;;2.70;;
9761;SDS011;4920;49.594;11.022;2023-09-19T01:49:42;7.50;;;3.00;;
9761;SDS011;4920;49.594;11.022;2023-09-19T01:52:24;3.75;;;2.50;;
9761;SDS011;4920;49.594;11.022;2023-09-19T01:54:59;4.75;;;2.70;;
9761;SDS011;4920;49.594;11.022;2023-09-19T01:57:35;5.65;;;2.60;;
9761;SDS011;4920;49.594;11.022;2023-09-19T02:00:10;5.40;;;2.65;;
9761;SDS011;4920;49.594;11.022;2023-09-19T02:02:43;5.30;;;2.40;;
9761;SDS011;4920;49.594;11.022;2023-09-19T02:05:21;3.63;;;2.40;;
9761;SDS011;4920;49.594;11.022;2023-09-19T02:07:51;5.63;;;2.50;;
9761;SDS011;4920;49.594;11.022;2023-09-19T02:10:21;5.60;;;2.30;;
9761;SDS011;4920;49.594;11.022;2023-09-19T02:12:50;4.88;;;2.38;;
9761;SDS011;4920;49.594;11.022;2023-09-19T02:15:19;2.78;;;1.92;;
9761;SDS011;4920;49.594;11.022;2023-09-19T02:17:50;3.40;;;2.00;;
9761;SDS011;4920;49.594;11.022;2023-09-19T02:20:20;3.50;;;2.28;;
9761;SDS011;4920;49.594;11.022;2023-09-19T02:22:49;3.60;;;2.15;;
9761;SDS011;4920;49.594;11.022;2023-09-19T02:25:20;4.30;;;2.22;;
9761;SDS011;4920;49.594;11.022;2023-09-19T02:27:49;3.85;;;2.20;;
9761;SDS011;4920;49.594;11.022;2023-09-19T02:30:22;8.20;;;2.10;;
9761;SDS011;4920;49.594;11.022;2023-09-19T02:32:53;2.97;;;2.13;;
9761;SDS011;4920;49.594;11.022;2023-09-19T02:35:22;4.82;;;2.30;;
9761;SDS011;4920;49.594;11.022;2023-09-19T02:37:53;4.78;;;2.20;;
9761;SDS011;4920;49.594;11.022;2023-09-19T02:40:23;3.83;;;2.00;;
9761;SDS011;4920;49.594;11.022;2023-09-19T02:42:54;3.28;;;2.13;;
9761;SDS011;4920;49.594;11.022;2023-09-19T02:45:26;7.15;;;1.90;;
9761;SDS011;4920;49.594;11.022;2023-09-19T02:47:57;3.67;;;2.05;;
9761;SDS011;4920;49.594;11.022;2023-09-19T02:50:26;2.47;;;1.80;;
9761;SDS011;4920;49.594;11.022;2023-09-19T02:52:55;3.72;;;2.00;;
9761;SDS011;4920;49.594;11.022;2023-09-19T02:55:24;4.20;;;2.17;;
9761;SDS011;4920;49.594;11.022;2023-09-19T02:57:54;6.13;;;1.98;;
9761;SDS011;4920;49.594;11.022;2023-09-19T03:00:24;3.72;;;2.00;;
9761;SDS011;4920;49.594;11.022;2023-09-19T03:02:54;3.92;;;2.05;;
9761;SDS011;4920;49.594;11.022;2023-09-19T03:05:26;4.43;;;1.83;;
9761;SDS011;4920;49.594;11.022;2023-09-19T03:07:58;4.32;;;2.10;;
9761;SDS011;4920;49.594;11.022;2023-09-19T03:10:30;2.15;;;1.88;;
9761;SDS011;4920;49.594;11.022;2023-09-19T03:12:59;3.53;;;2.10;;
9761;SDS011;4920;49.594;11.022;2023-09-19T03:15:29;4.15;;;1.83;;
9761;SDS011;4920;49.594;11.022;2023-09-19T03:18:00;5.65;;;2.05;;
9761;SDS011;4920;49.594;11.022;2023-09-19T03:20:29;4.05;;;2.10;;
9761;SDS011;4920;49.594;11.022;2023-09-19T03:22:58;3.88;;;2.17;;
9761;SDS011;4920;49.594;11.022;2023-09-19T03:25:28;3.17;;;2.00;;
9761;SDS011;4920;49.594;11.022;2023-09-19T03:27:57;4.70;;;2.10;;
9761;SDS011;4920;49.594;11.022;2023-09-19T03:30:26;3.75;;;2.08;;
9761;SDS011;4920;49.594;11.022;2023-09-19T03:32:56;2.40;;;1.73;;
9761;SDS011;4920;49.594;11.022;2023-09-19T03:35:26;3.47;;;1.85;;
9761;SDS011;4920;49.594;11.022;2023-09-19T03:37:55;4.90;;;1.85;;
9761;SDS011;4920;49.594;11.022;2023-09-19T03:40:25;3.53;;;2.10;;
9761;SDS011;4920;49.594;11.022;2023-09-19T03:42:53;4.47;;;1.90;;
9761;SDS011;4920;49.594;11.022;2023-09-19T03:45:23;2.88;;;1.67;;
9761;SDS011;4920;49.594;11.022;2023-09-19T03:47:52;3.47;;;1.83;;
9761;SDS011;4920;49.594;11.022;2023-09-19T03:50:23;4.88;;;2.17;;
9761;SDS011;4920;49.594;11.022;2023-09-19T03:52:57;4.35;;;1.90;;
9761;SDS011;4920;49.594;11.022;2023-09-19T03:55:25;3.88;;;1.80;;
9761;SDS011;4920;49.594;11.022;2023-09-19T03:57:55;4.13;;;2.00;;
9761;SDS011;4920;49.594;11.022;2023-09-19T04:00:25;3.90;;;2.00;;
9761;SDS011;4920;49.594;11.022;2023-09-19T04:02:58;6.35;;;2.17;;
9761;SDS011;4920;49.594;11.022;2023-09-19T04:05:29;3.63;;;1.75;;
9761;SDS011;4920;49.594;11.022;2023-09-19T04:08:00;5.05;;;1.70;;
9761;SDS011;4920;49.594;11.022;2023-09-19T04:10:29;5.05;;;2.13;;
9761;SDS011;4920;49.594;11.022;2023-09-19T04:12:58;5.53;;;2.22;;
9761;SDS011;4920;49.594;11.022;2023-09-19T04:15:27;3.78;;;1.88;;
9761;SDS011;4920;49.594;11.022;2023-09-19T04:17:56;3.63;;;1.63;;
9761;SDS011;4920;49.594;11.022;2023-09-19T04:20:25;3.45;;;1.80;;
9761;SDS011;4920;49.594;11.022;2023-09-19T04:22:54;2.97;;;1.60;;
9761;SDS011;4920;49.594;11.022;2023-09-19T04:25:25;3.00;;;1.92;;
9761;SDS011;4920;49.594;11.022;2023-09-19T04:27:55;3.00;;;1.70;;
9761;SDS011;4920;49.594;11.022;2023-09-19T04:30:25;3.83;;;1.85;;
9761;SDS011;4920;49.594;11.022;2023-09-19T04:32:54;2.92;;;1.85;;
9761;SDS011;4920;49.594;11.022;2023-09-19T04:35:23;5.88;;;1.92;;
9761;SDS011;4920;49.594;11.022;2023-09-19T04:37:52;3.85;;;1.60;;
9761;SDS011;4920;49.594;11.022;2023-09-19T04:40:21;3.65;;;1.80;;
9761;SDS011;4920;49.594;11.022;2023-09-19T04:42:54;2.42;;;1.75;;
9761;SDS011;4920;49.594;11.022;2023-09-19T04:45:24;2.38;;;1.80;;
9761;SDS011;4920;49.594;11.022;2023-09-19T04:47:54;3.50;;;1.80;;
9761;SDS011;4920;49.594;11.022;2023-09-19T04:50:24;6.90;;;2.10;;
9761;SDS011;4920;49.594;11.022;2023-09-19T04:52:55;3.60;;;2.20;;
9761;SDS011;4920;49.594;11.022;2023-09-19T04:55:23;4.25;;;1.83;;
9761;SDS011;4920;49.594;11.022;2023-09-19T04:57:54;3.80;;;1.75;;
9761;SDS011;4920;49.594;11.022;2023-09-19T05:00:23;7.20;;;2.00;;
9761;SDS011;4920;49.594;11.022;2023-09-19T05:02:55;2.58;;;1.73;;
9761;SDS011;4920;49.594;11.022;2023-09-19T05:05:25;2.75;;;1.65;;
9761;SDS011;4920;49.594;11.022;2023-09-19T05:07:54;2.85;;;1.90;;
9761;SDS011;4920;49.594;11.022;2023-09-19T05:10:23;6.72;;;2.13;;
9761;SDS011;4920;49.594;11.022;2023-09-19T05:12:54;4.13;;;1.80;;
9761;SDS011;4920;49.594;11.022;2023-09-19T05:15:23;3.15;;;1.80;;
9761;SDS011;4920;49.594;11.022;2023-09-19T05:17:52;5.10;;;1.90;;
9761;SDS011;4920;49.594;11.022;2023-09-19T05:20:24;2.72;;;1.80;;
9761;SDS011;4920;49.594;11.022;2023-09-19T05:22:57;3.35;;;2.20;;
9761;SDS011;4920;49.594;11.022;2023-09-19T05:25:29;3.35;;;2.10;;
9761;SDS011;4920;49.594;11.022;2023-09-19T05:28:01;3.95;;;1.80;;
9761;SDS011;4920;49.594;11.022;2023-09-19T05:30:31;7.03;;;2.00;;
9761;SDS011;4920;49.594;11.022;2023-09-19T05:33:00;7.97;;;2.15;;
9761;SDS011;4920;49.594;11.022;2023-09-19T05:35:31;4.38;;;1.90;;
9761;SDS011;4920;49.594;11.022;2023-09-19T05:38:00;3.40;;;2.10;;
9761;SDS011;4920;49.594;11.022;2023-09-19T05:40:30;3.80;;;2.08;;
9761;SDS011;4920;49.594;11.022;2023-09-19T05:42:58;2.83;;;1.85;;
9761;SDS011;4920;49.594;11.022;2023-09-19T05:45:30;14.68;;;3.85;;
9761;SDS011;4920;49.594;11.022;2023-09-19T05:48:06;4.90;;;1.90;;
9761;SDS011;4920;49.594;11.022;2023-09-19T05:50:36;4.53;;;2.10;;
9761;SDS011;4920;49.594;11.022;2023-09-19T05:53:05;3.55;;;1.83;;
9761;SDS011;4920;49.594;11.022;2023-09-19T05:55:35;5.68;;;1.77;;
9761;SDS011;4920;49.594;11.022;2023-09-19T05:58:05;2.70;;;1.73;;
9761;SDS011;4920;49.594;11.022;2023-09-19T06:00:35;5.50;;;2.38;;
9761;SDS011;4920;49.594;11.022;2023-09-19T06:03:06;9.95;;;2.55;;
9761;SDS011;4920;49.594;11.022;2023-09-19T06:05:35;4.75;;;1.98;;
9761;SDS011;4920;49.594;11.022;2023-09-19T06:08:06;2.42;;;1.70;;
9761;SDS011;4920;49.594;11.022;2023-09-19T06:10:36;3.45;;;1.80;;
9761;SDS011;4920;49.594;11.022;2023-09-19T06:13:07;3.53;;;2.33;;
9761;SDS011;4920;49.594;11.022;2023-09-19T06:15:37;2.65;;;1.90;;
9761;SDS011;4920;49.594;11.022;2023-09-19T06:18:10;4.35;;;2.42;;
9761;SDS011;4920;49.594;11.022;2023-09-19T06:20:42;3.10;;;1.77;;
9761;SDS011;4920;49.594;11.022;2023-09-19T06:23:12;3.05;;;1.90;;
9761;SDS011;4920;49.594;11.022;2023-09-19T06:25:41;2.60;;;1.95;;
9761;SDS011;4920;49.594;11.022;2023-09-19T06:28:13;7.18;;;4.00;;
9761;SDS011;4920;49.594;11.022;2023-09-19T06:30:45;6.22;;;2.53;;
9761;SDS011;4920;49.594;11.022;2023-09-19T06:33:14;3.17;;;2.17;;
9761;SDS011;4920;49.594;11.022;2023-09-19T06:35:45;3.58;;;2.00;;
9761;SDS011;4920;49.594;11.022;2023-09-19T06:38:14;4.57;;;2.40;;
9761;SDS011;4920;49.594;11.022;2023-09-19T06:40:44;8.30;;;5.68;;
9761;SDS011;4920;49.594;11.022;2023-09-19T06:43:14;3.35;;;2.00;;
9761;SDS011;4920;49.594;11.022;2023-09-19T06:45:44;3.85;;;2.10;;
9761;SDS011;4920;49.594;11.022;2023-09-19T06:48:14;2.40;;;1.85;;
9761;SDS011;4920;49.594;11.022;2023-09-19T06:50:42;5.25;;;1.70;;
9761;SDS011;4920;49.594;11.022;2023-09-19T06:53:11;2.47;;;1.70;;
9761;SDS011;4920;49.594;11.022;2023-09-19T06:55:41;3.67;;;2.00;;
9761;SDS011;4920;49.594;11.022;2023-09-19T06:58:10;2.88;;;1.95;;
9761;SDS011;4920;49.594;11.022;2023-09-19T07:00:41;2.63;;;1.83;;
9761;SDS011;4920;49.594;11.022;2023-09-19T07:03:12;4.85;;;2.00;;
9761;SDS011;4920;49.594;11.022;2023-09-19T07:05:43;3.25;;;1.67;;
9761;SDS011;4920;49.594;11.022;2023-09-19T07:08:11;4.47;;;2.00;;
9761;SDS011;4920;49.594;11.022;2023-09-19T07:10:41;4.43;;;1.73;;
9761;SDS011;4920;49.594;11.022;2023-09-19T07:13:12;4.43;;;1.70;;
9761;SDS011;4920;49.594;11.022;2023-09-19T07:15:45;3.35;;;1.80;;
9761;SDS011;4920;49.594;11.022;2023-09-19T07:18:17;4.40;;;2.08;;
9761;SDS011;4920;49.594;11.022;2023-09-19T07:20:47;4.05;;;1.75;;
9761;SDS011;4920;49.594;11.022;2023-09-19T07:23:19;4.72;;;1.60;;
9761;SDS011;4920;49.594;11.022;2023-09-19T07:25:50;3.95;;;1.90;;
9761;SDS011;4920;49.594;11.022;2023-09-19T07:28:19;4.47;;;1.80;;
9761;SDS011;4920;49.594;11.022;2023-09-19T07:30:49;4.28;;;1.92;;
9761;SDS011;4920;49.594;11.022;2023-09-19T07:33:19;3.10;;;1.67;;
9761;SDS011;4920;49.594;11.022;2023-09-19T07:35:48;4.07;;;1.90;;
9761;SDS011;4920;49.594;11.022;2023-09-19T07:38:17;3.22;;;1.85;;
9761;SDS011;4920;49.594;11.022;2023-09-19T07:40:46;4.18;;;1.90;;
9761;SDS011;4920;49.594;11.022;2023-09-19T07:43:15;3.30;;;1.75;;
9761;SDS011;4920;49.594;11.022;2023-09-19T07:45:44;4.10;;;1.77;;
9761;SDS011;4920;49.594;11.022;2023-09-19T07:48:15;5.15;;;2.45;;
9761;SDS011;4920;49.594;11.022;2023-09-19T07:50:44;3.35;;;1.80;;
9761;SDS011;4920;49.594;11.022;2023-09-19T07:53:13;3.65;;;1.65;;
9761;SDS011;4920;49.594;11.022;2023-09-19T07:55:44;5.95;;;2.30;;
9761;SDS011;4920;49.594;11.022;2023-09-19T07:58:15;2.65;;;1.88;;
9761;SDS011;4920;49.594;11.022;2023-09-19T08:00:44;2.50;;;1.73;;
9761;SDS011;4920;49.594;11.022;2023-09-19T08:03:13;3.95;;;2.17;;
9761;SDS011;4920;49.594;11.022;2023-09-19T08:05:45;3.65;;;1.70;;
9761;SDS011;4920;49.594;11.022;2023-09-19T08:08:15;3.70;;;2.22;;
9761;SDS011;4920;49.594;11.022;2023-09-19T08:10:44;3.30;;;1.90;;
9761;SDS011;4920;49.594;11.022;2023-09-19T08:13:16;4.28;;;1.80;;
9761;SDS011;4920;49.594;11.022;2023-09-19T08:15:45;4.50;;;2.00;;
9761;SDS011;4920;49.594;11.022;2023-09-19T08:18:14;5.90;;;2.05;;
9761;SDS011;4920;49.594;11.022;2023-09-19T08:20:50;5.13;;;1.88;;
9761;SDS011;4920;49.594;11.022;2023-09-19T08:23:20;5.18;;;2.33;;
9761;SDS011;4920;49.594;11.022;2023-09-19T08:25:49;4.28;;;1.75;;
9761;SDS011;4920;49.594;11.022;2023-09-19T08:28:18;3.22;;;1.70;;
9761;SDS011;4920;49.594;11.022;2023-09-19T08:30:51;9.43;;;1.90;;
9761;SDS011;4920;49.594;11.022;2023-09-19T08:33:22;5.32;;;1.90;;
9761;SDS011;4920;49.594;11.022;2023-09-19T08:35:52;3.97;;;1.50;;
9761;SDS011;4920;49.594;11.022;2023-09-19T08:38:24;3.33;;;1.60;;
9761;SDS011;4920;49.594;11.022;2023-09-19T08:40:57;2.47;;;1.48;;
9761;SDS011;4920;49.594;11.022;2023-09-19T08:43:27;1.85;;;1.30;;
9761;SDS011;4920;49.594;11.022;2023-09-19T08:45:58;9.98;;;5.15;;
9761;SDS011;4920;49.594;11.022;2023-09-19T08:48:35;3.00;;;2.40;;
9761;SDS011;4920;49.594;11.022;2023-09-19T08:51:10;3.47;;;1.65;;
9761;SDS011;4920;49.594;11.022;2023-09-19T08:53:47;5.18;;;3.30;;
9761;SDS011;4920;49.594;11.022;2023-09-19T08:56:20;4.68;;;1.75;;
9761;SDS011;4920;49.594;11.022;2023-09-19T08:58:54;3.53;;;1.63;;
9761;SDS011;4920;49.594;11.022;2023-09-19T09:01:26;4.60;;;1.83;;
9761;SDS011;4920;49.594;11.022;2023-09-19T09:03:56;3.10;;;1.30;;
9761;SDS011;4920;49.594;11.022;2023-09-19T09:06:29;3.20;;;1.40;;
9761;SDS011;4920;49.594;11.022;2023-09-19T09:08:59;3.97;;;1.58;;
9761;SDS011;4920;49.594;11.022;2023-09-19T09:11:30;3.67;;;1.90;;
9761;SDS011;4920;49.594;11.022;2023-09-19T09:14:01;3.63;;;1.70;;
9761;SDS011;4920;49.594;11.022;2023-09-19T09:16:30;3.55;;;1.40;;
9761;SDS011;4920;49.594;11.022;2023-09-19T09:19:01;3.80;;;1.50;;
9761;SDS011;4920;49.594;11.022;2023-09-19T09:21:32;3.08;;;1.60;;
9761;SDS011;4920;49.594;11.022;2023-09-19T09:26:57;2.50;;;1.23;;
9761;SDS011;4920;49.594;11.022;2023-09-19T09:29:43;2.22;;;1.13;;
9761;SDS011;4920;49.594;11.022;2023-09-19T09:32:20;2.60;;;1.58;;
9761;SDS011;4920;49.594;11.022;2023-09-19T09:34:51;2.47;;;1.45;;
9761;SDS011;4920;49.594;11.022;2023-09-19T09:37:28;3.55;;;1.40;;
9761;SDS011;4920;49.594;11.022;2023-09-19T09:39:58;2.53;;;1.40;;
9761;SDS011;4920;49.594;11.022;2023-09-19T09:42:46;3.08;;;1.50;;
9761;SDS011;4920;49.594;11.022;2023-09-19T09:45:19;3.05;;;1.55;;
9761;SDS011;4920;49.594;11.022;2023-09-19T09:47:55;3.45;;;1.40;;
9761;SDS011;4920;49.594;11.022;2023-09-19T09:50:27;2.90;;;1.50;;
9761;SDS011;4920;49.594;11.022;2023-09-19T09:53:20;4.22;;;1.45;;
9761;SDS011;4920;49.594;11.022;2023-09-19T09:56:02;3.20;;;1.33;;
9761;SDS011;4920;49.594;11.022;2023-09-19T09:58:33;6.05;;;1.38;;
9761;SDS011;4920;49.594;11.022;2023-09-19T10:01:04;3.50;;;1.27;;
9761;SDS011;4920;49.594;11.022;2023-09-19T10:03:38;2.75;;;1.15;;
9761;SDS011;4920;49.594;11.022;2023-09-19T10:06:10;4.70;;;1.20;;
9761;SDS011;4920;49.594;11.022;2023-09-19T10:09:00;2.60;;;1.52;;
9761;SDS011;4920;49.594;11.022;2023-09-19T10:11:41;3.30;;;1.35;;
9761;SDS011;4920;49.594;11.022;2023-09-19T10:14:11;3.15;;;1.40;;
9761;SDS011;4920;49.594;11.022;2023-09-19T10:16:45;6.05;;;1.33;;
9761;SDS011;4920;49.594;11.022;2023-09-19T10:19:16;5.13;;;1.50;;
9761;SDS011;4920;49.594;11.022;2023-09-19T10:21:53;2.03;;;1.25;;
9761;SDS011;4920;49.594;11.022;2023-09-19T10:24:25;3.47;;;1.30;;
9761;SDS011;4920;49.594;11.022;2023-09-19T10:26:59;3.28;;;1.48;;
9761;SDS011;4920;49.594;11.022;2023-09-19T10:29:28;5.03;;;1.67;;
9761;SDS011;4920;49.594;11.022;2023-09-19T10:32:03;1.95;;;1.38;;
9761;SDS011;4920;49.594;11.022;2023-09-19T10:34:35;4.63;;;1.95;;
9761;SDS011;4920;49.594;11.022;2023-09-19T10:37:08;2.60;;;1.67;;
9761;SDS011;4920;49.594;11.022;2023-09-19T10:39:43;4.25;;;1.80;;
9761;SDS011;4920;49.594;11.022;2023-09-19T10:42:16;4.57;;;1.58;;
9761;SDS011;4920;49.594;11.022;2023-09-19T10:44:48;4.03;;;1.60;;
9761;SDS011;4920;49.594;11.022;2023-09-19T10:47:20;3.05;;;1.45;;
9761;SDS011;4920;49.594;11.022;2023-09-19T10:49:51;2.85;;;1.45;;
9761;SDS011;4920;49.594;11.022;2023-09-19T10:52:22;4.60;;;1.60;;
9761;SDS011;4920;49.594;11.022;2023-09-19T10:54:56;4.63;;;1.60;;
9761;SDS011;4920;49.594;11.022;2023-09-19T10:57:28;3.00;;;1.65;;
9761;SDS011;4920;49.594;11.022;2023-09-19T11:00:03;2.67;;;1.25;;
9761;SDS011;4920;49.594;11.022;2023-09-19T11:06:00;2.42;;;1.77;;
9761;SDS011;4920;49.594;11.022;2023-09-19T11:11:40;4.93;;;2.10;;
9761;SDS011;4920;49.594;11.022;2023-09-19T11:14:17;4.03;;;1.80;;
9761;SDS011;4920;49.594;11.022;2023-09-19T11:20:20;3.80;;;1.60;;
9761;SDS011;4920;49.594;11.022;2023-09-19T11:23:18;6.10;;;1.50;;
9761;SDS011;4920;49.594;11.022;2023-09-19T11:25:50;5.38;;;1.42;;
9761;SDS011;4920;49.594;11.022;2023-09-19T11:28:32;3.20;;;1.40;;
9761;SDS011;4920;49.594;11.022;2023-09-19T11:34:39;2.88;;;1.38;;
9761;SDS011;4920;49.594;11.022;2023-09-19T11:40:29;3.90;;;1.60;;
9761;SDS011;4920;49.594;11.022;2023-09-19T11:42:59;2.67;;;1.42;;
9761;SDS011;4920;49.594;11.022;2023-09-19T11:46:04;2.53;;;1.30;;
9761;SDS011;4920;49.594;11.022;2023-09-19T11:48:33;2.80;;;1.65;;
9761;SDS011;4920;49.594;11.022;2023-09-19T11:51:14;3.20;;;1.50;;
9761;SDS011;4920;49.594;11.022;2023-09-19T11:53:49;6.82;;;2.38;;
9761;SDS011;4920;49.594;11.022;2023-09-19T11:56:19;3.42;;;1.70;;
9761;SDS011;4920;49.594;11.022;2023-09-19T11:58:51;3.67;;;1.30;;
9761;SDS011;4920;49.594;11.022;2023-09-19T12:01:29;4.15;;;1.30;;
9761;SDS011;4920;49.594;11.022;2023-09-19T12:04:00;4.47;;;1.70;;
9761;SDS011;4920;49.594;11.022;2023-09-19T12:06:32;2.40;;;1.45;;
9761;SDS011;4920;49.594;11.022;2023-09-19T12:09:03;4.10;;;1.50;;
9761;SDS011;4920;49.594;11.022;2023-09-19T12:11:40;2.55;;;1.25;;
9761;SDS011;4920;49.594;11.022;2023-09-19T12:14:11;2.28;;;1.40;;
9761;SDS011;4920;49.594;11.022;2023-09-19T12:16:52;2.58;;;1.33;;
9761;SDS011;4920;49.594;11.022;2023-09-19T12:19:22;4.53;;;1.50;;
9761;SDS011;4920;49.594;11.022;2023-09-19T12:21:58;2.60;;;1.33;;
9761;SDS011;4920;49.594;11.022;2023-09-19T12:24:32;3.20;;;1.45;;
9761;SDS011;4920;49.594;11.022;2023-09-19T12:27:05;3.47;;;1.33;;
9761;SDS011;4920;49.594;11.022;2023-09-19T12:29:42;5.05;;;1.40;;
9761;SDS011;4920;49.594;11.022;2023-09-19T12:32:14;3.08;;;1.20;;
9761;SDS011;4920;49.594;11.022;2023-09-19T12:34:50;2.58;;;1.35;;
9761;SDS011;4920;49.594;11.022;2023-09-19T12:37:22;3.15;;;1.40;;
9761;SDS011;4920;49.594;11.022;2023-09-19T12:40:03;2.78;;;1.30;;
9761;SDS011;4920;49.594;11.022;2023-09-19T12:42:41;4.03;;;1.45;;
9761;SDS011;4920;49.594;11.022;2023-09-19T12:45:11;5.82;;;1.75;;
9761;SDS011;4920;49.594;11.022;2023-09-19T12:51:04;5.45;;;1.70;;
9761;SDS011;4920;49.594;11.022;2023-09-19T12:53:35;3.38;;;1.42;;
9761;SDS011;4920;49.594;11.022;2023-09-19T12:56:08;2.15;;;1.55;;
9761;SDS011;4920;49.594;11.022;2023-09-19T12:58:50;4.18;;;1.70;;
9761;SDS011;4920;49.594;11.022;2023-09-19T13:01:22;2.53;;;1.38;;
9761;SDS011;4920;49.594;11.022;2023-09-19T13:04:14;3.83;;;1.33;;
9761;SDS011;4920;49.594;11.022;2023-09-19T13:06:50;5.47;;;1.50;;
9761;SDS011;4920;49.594;11.022;2023-09-19T13:09:19;3.25;;;1.55;;
9761;SDS011;4920;49.594;11.022;2023-09-19T13:11:51;2.78;;;1.25;;
9761;SDS011;4920;49.594;11.022;2023-09-19T13:14:21;4.05;;;1.58;;
9761;SDS011;4920;49.594;11.022;2023-09-19T13:16:55;3.78;;;1.45;;
9761;SDS011;4920;49.594;11.022;2023-09-19T13:19:35;3.53;;;1.60;;
9761;SDS011;4920;49.594;11.022;2023-09-19T13:25:11;4.13;;;1.30;;
9761;SDS011;4920;49.594;11.022;2023-09-19T13:27:42;6.43;;;1.42;;
9761;SDS011;4920;49.594;11.022;2023-09-19T13:30:13;3.30;;;1.30;;
9761;SDS011;4920;49.594;11.022;2023-09-19T13:32:42;3.72;;;1.35;;
9761;SDS011;4920;49.594;11.022;2023-09-19T13:35:14;2.42;;;1.27;;
9761;SDS011;4920;49.594;11.022;2023-09-19T13:37:46;3.58;;;1.40;;
9761;SDS011;4920;49.594;11.022;2023-09-19T13:40:18;3.70;;;1.50;;
9761;SDS011;4920;49.594;11.022;2023-09-19T13:42:47;3.42;;;1.48;;
9761;SDS011;4920;49.594;11.022;2023-09-19T13:45:20;2.65;;;1.40;;
9761;SDS011;4920;49.594;11.022;2023-09-19T13:47:51;2.67;;;1.42;;
9761;SDS011;4920;49.594;11.022;2023-09-19T13:50:20;3.33;;;1.33;;
9761;SDS011;4920;49.594;11.022;2023-09-19T13:52:52;6.45;;;1.33;;
9761;SDS011;4920;49.594;11.022;2023-09-19T13:55:21;3.85;;;1.52;;
9761;SDS011;4920;49.594;11.022;2023-09-19T13:57:52;4.53;;;1.90;;
9761;SDS011;4920;49.594;11.022;2023-09-19T14:00:23;4.43;;;1.58;;
9761;SDS011;4920;49.594;11.022;2023-09-19T14:02:52;3.03;;;1.58;;
9761;SDS011;4920;49.594;11.022;2023-09-19T14:05:21;7.13;;;1.55;;
9761;SDS011;4920;49.594;11.022;2023-09-19T14:07:55;3.13;;;1.48;;
9761;SDS011;4920;49.594;11.022;2023-09-19T14:10:26;3.28;;;1.60;;
9761;SDS011;4920;49.594;11.022;2023-09-19T14:12:57;3.80;;;1.52;;
9761;SDS011;4920;49.594;11.022;2023-09-19T14:15:26;2.40;;;1.50;;
9761;SDS011;4920;49.594;11.022;2023-09-19T14:17:57;2.28;;;1.40;;
9761;SDS011;4920;49.594;11.022;2023-09-19T14:20:28;4.35;;;1.50;;
9761;SDS011;4920;49.594;11.022;2023-09-19T14:23:00;3.85;;;1.70;;
9761;SDS011;4920;49.594;11.022;2023-09-19T14:25:29;2.65;;;1.67;;
9761;SDS011;4920;49.594;11.022;2023-09-19T14:27:58;3.05;;;1.50;;
9761;SDS011;4920;49.594;11.022;2023-09-19T14:30:27;5.28;;;1.40;;
9761;SDS011;4920;49.594;11.022;2023-09-19T14:32:56;3.90;;;1.60;;
9761;SDS011;4920;49.594;11.022;2023-09-19T14:35:25;3.20;;;1.35;;
9761;SDS011;4920;49.594;11.022;2023-09-19T14:37:54;3.65;;;1.33;;
9761;SDS011;4920;49.594;11.022;2023-09-19T14:40:25;2.67;;;1.40;;
9761;SDS011;4920;49.594;11.022;2023-09-19T14:42:54;3.42;;;1.60;;
9761;SDS011;4920;49.594;11.022;2023-09-19T14:45:23;3.28;;;1.45;;
9761;SDS011;4920;49.594;11.022;2023-09-19T14:47:52;4.78;;;1.70;;
9761;SDS011;4920;49.594;11.022;2023-09-19T14:50:23;3.45;;;1.52;;
9761;SDS011;4920;49.594;11.022;2023-09-19T14:52:53;3.42;;;1.17;;
9761;SDS011;4920;49.594;11.022;2023-09-19T14:55:22;6.13;;;1.50;;
9761;SDS011;4920;49.594;11.022;2023-09-19T14:57:52;4.32;;;1.63;;
9761;SDS011;4920;49.594;11.022;2023-09-19T15:00:23;5.40;;;1.40;;
9761;SDS011;4920;49.594;11.022;2023-09-19T15:02:52;2.20;;;1.40;;
9761;SDS011;4920;49.594;11.022;2023-09-19T15:05:23;3.95;;;1.55;;
9761;SDS011;4920;49.594;11.022;2023-09-19T15:07:52;4.10;;;1.63;;
9761;SDS011;4920;49.594;11.022;2023-09-19T15:10:22;3.58;;;1.52;;
9761;SDS011;4920;49.594;11.022;2023-09-19T15:12:53;3.53;;;1.50;;
9761;SDS011;4920;49.594;11.022;2023-09-19T15:15:22;6.03;;;1.40;;
9761;SDS011;4920;49.594;11.022;2023-09-19T15:17:51;5.05;;;1.70;;
9761;SDS011;4920;49.594;11.022;2023-09-19T15:20:21;3.85;;;1.40;;
9761;SDS011;4920;49.594;11.022;2023-09-19T15:22:49;3.25;;;1.50;;
9761;SDS011;4920;49.594;11.022;2023-09-19T15:25:19;2.33;;;1.27;;
9761;SDS011;4920;49.594;11.022;2023-09-19T15:27:48;2.85;;;1.40;;
9761;SDS011;4920;49.594;11.022;2023-09-19T15:30:18;3.33;;;1.23;;
9761;SDS011;4920;49.594;11.022;2023-09-19T15:32:47;3.15;;;1.42;;
9761;SDS011;4920;49.594;11.022;2023-09-19T15:35:16;3.97;;;1.60;;
9761;SDS011;4920;49.594;11.022;2023-09-19T15:37:45;5.32;;;1.50;;
9761;SDS011;4920;49.594;11.022;2023-09-19T15:40:14;2.50;;;1.40;;
9761;SDS011;4920;49.594;11.022;2023-09-19T15:42:43;3.35;;;1.85;;
9761;SDS011;4920;49.594;11.022;2023-09-19T15:45:12;2.78;;;1.55;;
9761;SDS011;4920;49.594;11.022;2023-09-19T15:47:43;5.93;;;1.70;;
9761;SDS011;4920;49.594;11.022;2023-09-19T15:50:13;3.95;;;1.90;;
9761;SDS011;4920;49.594;11.022;2023-09-19T15:52:42;3.75;;;1.48;;
9761;SDS011;4920;49.594;11.022;2023-09-19T15:55:12;4.97;;;1.60;;
9761;SDS011;4920;49.594;11.022;2023-09-19T15:57:42;3.53;;;1.63;;
9761;SDS011;4920;49.594;11.022;2023-09-19T16:00:12;4.22;;;1.40;;